»·PEaware :: N221XG KRNM-KSMO

N221XG :: KRNM-KSMO

FLIGHT INFORMATION

Flight Status: Arrived
Operator: Privately registered:
United States
More flights under this callsign
Pilot: Ryan L. (9775)
Aircraft: BEECH AIRCRAFT SUPER KING AIR 350
(B350)
More flights by this aircraft type
Origin: KRNM Ramona
United States
Destination: KSMO Santa Monica Mun
United States
More flights between these airports :: More routes between these airports
Route: +ROBNN V208 SLI148 SLI V459 DARTS
File this flight plan on PilotEdge
Remarks:
Altitude:
(Current/Filed)
8,000ft
Speed:
(Current/Filed)
275kts
Departed: 19-May-19 05:59 PM
Arrived: 19-May-19 06:38 PM
Distance/Time
Traveled:
97nm/0:39
Distance/Time
To Go:
Arrived

Flight Plot

Page will automatically refresh every two minutes.


Map Options




Map Legend


Flown Route
Filed Route
Departure Airport
Arrival Airport
Navaid (VOR, NDB)
Fix

Horizontal Profiles

Position Reports

Time Latitude Longitude Heading Altitude Ground
Speed
19-May-19 17:45 33.039182 -116.908214 185 1400ft 0kts
19-May-19 17:46 33.039182 -116.908214 185 1400ft 0kts
19-May-19 17:47 33.039182 -116.908214 185 1400ft 0kts
19-May-19 17:48 33.039182 -116.908214 185 1400ft 0kts
19-May-19 17:49 33.039182 -116.908214 185 1400ft 0kts
19-May-19 17:50 33.039182 -116.908214 185 1400ft 0kts
19-May-19 17:51 33.038923 -116.908216 166 1400ft 4kts
19-May-19 17:52 33.038510 -116.907467 177 1400ft 0kts
19-May-19 17:53 33.038510 -116.907467 177 1400ft 0kts
19-May-19 17:54 33.038510 -116.907467 177 1400ft 0kts
19-May-19 17:55 33.038510 -116.907467 177 1400ft 0kts
19-May-19 17:56 33.038510 -116.907467 177 1400ft 0kts
19-May-19 17:57 33.038045 -116.907748 280 1400ft 6kts
19-May-19 17:58 33.043359 -116.938297 279 2214ft 139kts
19-May-19 17:59 33.049525 -116.980585 275 4602ft 131kts
19-May-19 18:00 33.057718 -117.024517 279 6734ft 141kts
19-May-19 18:01 33.085277 -117.062655 326 8043ft 202kts
19-May-19 18:02 33.147624 -117.088741 341 8012ft 260kts
19-May-19 18:03 33.219497 -117.110793 320 7979ft 261kts
19-May-19 18:04 33.233805 -117.187155 255 8021ft 248kts
19-May-19 18:05 33.226292 -117.268182 274 8001ft 249kts
19-May-19 18:06 33.233971 -117.350789 276 8000ft 249kts
19-May-19 18:07 33.237862 -117.433074 257 8010ft 249kts
19-May-19 18:08 33.228266 -117.515165 262 8002ft 249kts
19-May-19 18:09 33.218108 -117.597634 262 8001ft 250kts
19-May-19 18:10 33.207455 -117.680243 261 8004ft 251kts
19-May-19 18:11 33.196676 -117.762877 261 8005ft 252kts
19-May-19 18:12 33.202581 -117.842111 316 8010ft 256kts
19-May-19 18:13 33.271868 -117.869956 339 8007ft 265kts
19-May-19 18:14 33.342796 -117.895446 339 8006ft 266kts
19-May-19 18:15 33.414023 -117.921069 339 8007ft 267kts
19-May-19 18:16 33.485146 -117.946699 339 8008ft 267kts
19-May-19 18:17 33.556309 -117.972392 339 8004ft 267kts
19-May-19 18:18 33.627831 -117.998254 339 8000ft 267kts
19-May-19 18:19 33.699571 -118.024288 340 7990ft 270kts
19-May-19 18:20 33.771752 -118.050437 339 8004ft 271kts
19-May-19 18:21 33.839044 -118.087865 330 7999ft 258kts
19-May-19 18:22 33.900299 -118.123335 330 7973ft 230kts
19-May-19 18:23 33.956055 -118.155177 331 8011ft 219kts
19-May-19 18:24 34.012750 -118.187595 331 7993ft 228kts
19-May-19 18:25 34.067171 -118.218493 330 6943ft 214kts
19-May-19 18:26 34.119890 -118.248937 330 5978ft 190kts
19-May-19 18:27 34.166185 -118.245476 15 5405ft 172kts
19-May-19 18:28 34.199021 -118.266969 292 3969ft 151kts
19-May-19 18:29 34.177590 -118.282724 163 4007ft 140kts
19-May-19 18:30 34.141978 -118.276682 235 3616ft 140kts
19-May-19 18:31 34.122368 -118.311331 238 3171ft 106kts
19-May-19 18:32 34.102902 -118.337493 230 2632ft 126kts
19-May-19 18:33 34.081955 -118.367579 236 2015ft 114kts
19-May-19 18:34 34.061224 -118.395991 229 1349ft 113kts
19-May-19 18:35 34.039486 -118.422611 230 835ft 106kts
19-May-19 18:36 34.019564 -118.446849 225 183ft 90kts
19-May-19 18:37 34.013444 -118.454119 220 182ft 4kts
19-May-19 18:38 34.012442 -118.454377 230 182ft 7kts
19-May-19 18:39 34.011656 -118.454498 137 182ft 1kts
19-May-19 18:40 34.011646 -118.454488 137 182ft 0kts
19-May-19 18:41 34.011646 -118.454488 137 182ft 0kts

Navigation Log

Ident Type
Flight plan parsing failed, navigation log unavailable